Observation data for Knox City on 08/13/2020      Previous  Date       Current Mesonet Observations  Soil Data  Daily Summary Page  Observations in Plain Language
KKN1 130500Z 17012KT 33/15 A2987 RMK A01 T03320148  RH  035%=      5-min Rain = 0
KKN1 130505Z 17012KT 33/15 A2987 RMK A01 T03310149  RH  035%=      5-min Rain = 0
KKN1 130510Z 17012KT 33/15 A2987 RMK A01 T03290149  RH  035%=      5-min Rain = 0
KKN1 130515Z 17012KT 33/15 A2987 RMK A01 T03280149  RH  036%=      5-min Rain = 0
KKN1 130520Z 17011KT 33/15 A2986 RMK A01 T03270150  RH  036%=      5-min Rain = 0
KKN1 130525Z 17011KT 33/15 A2986 RMK A01 T03250150  RH  037%=      5-min Rain = 0
KKN1 130530Z 17011KT 32/15 A2987 RMK A01 T03240151  RH  037%=      5-min Rain = 0
KKN1 130535Z 18010KT 32/15 A2987 RMK A01 T03220151  RH  037%=      5-min Rain = 0
KKN1 130540Z 17010KT 32/15 A2987 RMK A01 T03200152  RH  038%=      5-min Rain = 0
KKN1 130545Z 18010KT 32/15 A2987 RMK A01 T03200153  RH  038%=      5-min Rain = 0
KKN1 130550Z 17011KT 32/15 A2987 RMK A01 T03210153  RH  038%=      5-min Rain = 0
KKN1 130555Z 17011KT 32/15 A2987 RMK A01 T03200153  RH  038%=      5-min Rain = 0
KKN1 130600Z 18010KT 32/15 A2987 RMK A01 T03190154  RH  039%=      5-min Rain = 0
KKN1 130605Z 18011KT 32/15 A2987 RMK A01 T03200154  RH  039%=      5-min Rain = 0
KKN1 130610Z 19011KT 32/16 A2987 RMK A01 T03200155  RH  039%=      5-min Rain = 0
KKN1 130615Z 18011KT 32/16 A2987 RMK A01 T03190155  RH  039%=      5-min Rain = 0
KKN1 130620Z 18011KT 32/16 A2986 RMK A01 T03200155  RH  039%=      5-min Rain = 0
KKN1 130625Z 18011KT 32/16 A2986 RMK A01 T03180156  RH  039%=      5-min Rain = 0
KKN1 130630Z 19011KT 32/16 A2986 RMK A01 T03170156  RH  040%=      5-min Rain = 0
KKN1 130635Z 19011KT 32/16 A2986 RMK A01 T03160156  RH  040%=      5-min Rain = 0
KKN1 130640Z 19010KT 31/16 A2986 RMK A01 T03140156  RH  040%=      5-min Rain = 0
KKN1 130645Z 18010KT 31/16 A2986 RMK A01 T03140156  RH  040%=      5-min Rain = 0
KKN1 130650Z 19010KT 31/16 A2986 RMK A01 T03120156  RH  041%=      5-min Rain = 0
KKN1 130655Z 19010KT 31/16 A2986 RMK A01 T03110156  RH  041%=      5-min Rain = 0
KKN1 130700Z 19010KT 31/16 A2986 RMK A01 T03110156  RH  041%=      5-min Rain = 0
KKN1 130705Z 18010KT 31/16 A2986 RMK A01 T03100157  RH  041%=      5-min Rain = 0
KKN1 130710Z 18009KT 31/16 A2986 RMK A01 T03070157  RH  042%=      5-min Rain = 0
KKN1 130715Z 18010KT 31/16 A2986 RMK A01 T03060157  RH  042%=      5-min Rain = 0
KKN1 130720Z 19009KT 31/16 A2986 RMK A01 T03060157  RH  043%=      5-min Rain = 0
KKN1 130725Z 19009KT 31/16 A2986 RMK A01 T03050157  RH  043%=      5-min Rain = 0
KKN1 130730Z 19008KT 30/16 A2986 RMK A01 T03040157  RH  043%=      5-min Rain = 0
KKN1 130735Z 19008KT 30/16 A2987 RMK A01 T03030157  RH  043%=      5-min Rain = 0
KKN1 130740Z 20008KT 30/16 A2986 RMK A01 T03020157  RH  044%=      5-min Rain = 0
KKN1 130745Z 19008KT 30/16 A2986 RMK A01 T03000157  RH  044%=      5-min Rain = 0
KKN1 130750Z 19009KT 30/16 A2986 RMK A01 T02990158  RH  044%=      5-min Rain = 0
KKN1 130755Z 19009KT 30/16 A2986 RMK A01 T02990158  RH  045%=      5-min Rain = 0
KKN1 130800Z 19008KT 30/16 A2986 RMK A01 T02970158  RH  045%=      5-min Rain = 0
KKN1 130805Z 19008KT 30/16 A2986 RMK A01 T02960158  RH  045%=      5-min Rain = 0
KKN1 130810Z 19008KT 30/16 A2986 RMK A01 T02950158  RH  046%=      5-min Rain = 0
KKN1 130815Z 19008KT 29/16 A2986 RMK A01 T02930158  RH  046%=      5-min Rain = 0
KKN1 130820Z 19008KT 29/16 A2986 RMK A01 T02920158  RH  047%=      5-min Rain = 0
KKN1 130825Z 19009KT 29/16 A2986 RMK A01 T02920158  RH  046%=      5-min Rain = 0
KKN1 130830Z 19008KT 29/16 A2986 RMK A01 T02910158  RH  047%=      5-min Rain = 0
KKN1 130835Z 19008KT 29/16 A2986 RMK A01 T02890158  RH  047%=      5-min Rain = 0
KKN1 130840Z 19008KT 29/16 A2986 RMK A01 T02880158  RH  047%=      5-min Rain = 0
KKN1 130845Z 18008KT 29/16 A2986 RMK A01 T02850158  RH  048%=      5-min Rain = 0
KKN1 130850Z 18008KT 28/16 A2986 RMK A01 T02820159  RH  049%=      5-min Rain = 0
KKN1 130855Z 18008KT 28/16 A2986 RMK A01 T02800159  RH  050%=      5-min Rain = 0
KKN1 130900Z 18008KT 28/16 A2986 RMK A01 T02770159  RH  051%=      5-min Rain = 0
KKN1 130905Z 17008KT 27/16 A2986 RMK A01 T02740159  RH  052%=      5-min Rain = 0
KKN1 130910Z 18008KT 27/16 A2987 RMK A01 T02740159  RH  052%=      5-min Rain = 0
KKN1 130915Z 18008KT 27/16 A2987 RMK A01 T02730158  RH  052%=      5-min Rain = 0
KKN1 130920Z 17008KT 27/16 A2986 RMK A01 T02700158  RH  053%=      5-min Rain = 0
KKN1 130925Z 18007KT 27/16 A2987 RMK A01 T02690158  RH  053%=      5-min Rain = 0
KKN1 130930Z 18008KT 27/16 A2986 RMK A01 T02690158  RH  053%=      5-min Rain = 0
KKN1 130935Z 18008KT 27/16 A2986 RMK A01 T02670158  RH  054%=      5-min Rain = 0
KKN1 130940Z 18009KT 27/16 A2987 RMK A01 T02670159  RH  054%=      5-min Rain = 0
KKN1 130945Z 18009KT 27/16 A2987 RMK A01 T02660158  RH  054%=      5-min Rain = 0
KKN1 130950Z 18008KT 27/16 A2987 RMK A01 T02670158  RH  054%=      5-min Rain = 0
KKN1 130955Z 18008KT 27/16 A2987 RMK A01 T02680158  RH  054%=      5-min Rain = 0
KKN1 131000Z 19007KT 27/16 A2987 RMK A01 T02680158  RH  053%=      5-min Rain = 0
KKN1 131005Z 19008KT 27/16 A2987 RMK A01 T02680158  RH  053%=      5-min Rain = 0
KKN1 131010Z 18008KT 27/16 A2987 RMK A01 T02690158  RH  053%=      5-min Rain = 0
KKN1 131015Z 18009KT 27/16 A2987 RMK A01 T02700158  RH  053%=      5-min Rain = 0
KKN1 131020Z 18009KT 27/16 A2987 RMK A01 T02690158  RH  053%=      5-min Rain = 0
KKN1 131025Z 17008KT 27/16 A2988 RMK A01 T02670158  RH  054%=      5-min Rain = 0
KKN1 131030Z 17009KT 27/16 A2988 RMK A01 T02660158  RH  054%=      5-min Rain = 0
KKN1 131035Z 17009KT 27/16 A2988 RMK A01 T02650157  RH  054%=      5-min Rain = 0
KKN1 131040Z 17009KT 27/16 A2988 RMK A01 T02650157  RH  054%=      5-min Rain = 0
KKN1 131045Z 18009KT 26/16 A2988 RMK A01 T02640157  RH  054%=      5-min Rain = 0
KKN1 131050Z 17010KT 26/16 A2988 RMK A01 T02640157  RH  054%=      5-min Rain = 0
KKN1 131055Z 17009KT 26/16 A2988 RMK A01 T02640157  RH  054%=      5-min Rain = 0
KKN1 131100Z 17009KT 26/16 A2988 RMK A01 T02630157  RH  055%=      5-min Rain = 0
KKN1 131105Z 17009KT 26/16 A2988 RMK A01 T02620158  RH  055%=      5-min Rain = 0
KKN1 131110Z 18009KT 26/16 A2988 RMK A01 T02610158  RH  055%=      5-min Rain = 0
KKN1 131115Z 17009KT 26/16 A2988 RMK A01 T02600158  RH  056%=      5-min Rain = 0
KKN1 131120Z 17009KT 26/16 A2988 RMK A01 T02610158  RH  056%=      5-min Rain = 0
KKN1 131125Z 17010KT 26/16 A2989 RMK A01 T02620158  RH  055%=      5-min Rain = 0
KKN1 131130Z 17010KT 26/16 A2989 RMK A01 T02630157  RH  055%=      5-min Rain = 0
KKN1 131135Z 17010KT 26/16 A2989 RMK A01 T02630158  RH  055%=      5-min Rain = 0
KKN1 131140Z 17010KT 26/16 A2989 RMK A01 T02630158  RH  055%=      5-min Rain = 0
KKN1 131145Z 17010KT 26/16 A2989 RMK A01 T02630158  RH  055%=      5-min Rain = 0
KKN1 131150Z 18009KT 26/16 A299 RMK A01 T02620158  RH  055%=      5-min Rain = 0
KKN1 131155Z 18010KT 26/16 A299 RMK A01 T02620158  RH  055%=      5-min Rain = 0
KKN1 131200Z 18010KT 26/16 A299 RMK A01 T02630159  RH  055%=      5-min Rain = 0
KKN1 131205Z 18009KT 26/16 A299 RMK A01 T02620159  RH  056%=      5-min Rain = 0
KKN1 131210Z 19009KT 26/16 A2991 RMK A01 T02630160  RH  055%=      5-min Rain = 0
KKN1 131215Z 19008KT 27/16 A2991 RMK A01 T02650160  RH  055%=      5-min Rain = 0
KKN1 131220Z 20007KT 27/16 A2991 RMK A01 T02650160  RH  055%=      5-min Rain = 0
KKN1 131225Z 20006KT 27/16 A2992 RMK A01 T02660160  RH  055%=      5-min Rain = 0
KKN1 131230Z 20007KT 27/16 A2992 RMK A01 T02650160  RH  055%=      5-min Rain = 0
KKN1 131235Z 20007KT 27/16 A2992 RMK A01 T02670161  RH  055%=      5-min Rain = 0
KKN1 131240Z 20007KT 27/16 A2992 RMK A01 T02680162  RH  055%=      5-min Rain = 0
KKN1 131245Z 19007KT 27/16 A2992 RMK A01 T02700162  RH  054%=      5-min Rain = 0
KKN1 131250Z 19008KT 27/16 A2992 RMK A01 T02720163  RH  054%=      5-min Rain = 0
KKN1 131255Z 19008KT 28/16 A2992 RMK A01 T02750163  RH  053%=      5-min Rain = 0
KKN1 131300Z 19008KT 28/16 A2992 RMK A01 T02790164  RH  052%=      5-min Rain = 0
KKN1 131305Z 19009KT 28/16 A2993 RMK A01 T02820164  RH  051%=      5-min Rain = 0
KKN1 131310Z 19010KT 29/17 A2993 RMK A01 T02860165  RH  050%=      5-min Rain = 0
KKN1 131315Z 19011KT 29/17 A2993 RMK A01 T02910165  RH  049%=      5-min Rain = 0
KKN1 131320Z 19010KT 29/17 A2993 RMK A01 T02940166  RH  048%=      5-min Rain = 0
KKN1 131325Z 19011KT 30/17 A2993 RMK A01 T02980166  RH  047%=      5-min Rain = 0
KKN1 131330Z 19011KT 30/17 A2993 RMK A01 T03010167  RH  047%=      5-min Rain = 0
KKN1 131335Z 19010KT 31/17 A2993 RMK A01 T03050168  RH  046%=      5-min Rain = 0
KKN1 131340Z 19010KT 31/17 A2993 RMK A01 T03090169  RH  045%=      5-min Rain = 0
KKN1 131345Z 20011KT 31/17 A2993 RMK A01 T03100168  RH  045%=      5-min Rain = 0
KKN1 131350Z 20013KT 31/17 A2993 RMK A01 T03110167  RH  044%=      5-min Rain = 0
KKN1 131355Z 20012KT 32/17 A2993 RMK A01 T03150168  RH  043%=      5-min Rain = 0
KKN1 131400Z 20012KT 32/17 A2993 RMK A01 T03190168  RH  042%=      5-min Rain = 0
KKN1 131405Z 20014KT 32/17 A2993 RMK A01 T03190167  RH  042%=      5-min Rain = 0
KKN1 131410Z 20013G18KT 32/17 A2993 RMK A01 T03200168  RH  042%=      5-min Rain = 0
KKN1 131415Z 21013G18KT 33/17 A2993 RMK A01 T03250168  RH  041%=      5-min Rain = 0
KKN1 131420Z 20013KT 33/17 A2993 RMK A01 T03260169  RH  041%=      5-min Rain = 0
KKN1 131425Z 20014G19KT 33/17 A2993 RMK A01 T03260169  RH  041%=      5-min Rain = 0
KKN1 131430Z 21014G19KT 33/17 A2993 RMK A01 T03280170  RH  041%=      5-min Rain = 0
KKN1 131435Z 21014G19KT 33/17 A2993 RMK A01 T03320171  RH  040%=      5-min Rain = 0
KKN1 131440Z 21017G23KT 33/17 A2993 RMK A01 T03310170  RH  040%=      5-min Rain = 0
KKN1 131445Z 22016KT 32/17 A2993 RMK A01 T03240169  RH  042%=      5-min Rain = 0
KKN1 131450Z 22016G21KT 32/17 A2993 RMK A01 T03210170  RH  043%=      5-min Rain = 0
KKN1 131455Z 21016KT 32/17 A2993 RMK A01 T03200170  RH  043%=      5-min Rain = 0
KKN1 131500Z 21013G18KT 32/17 A2993 RMK A01 T03210171  RH  043%=      5-min Rain = 0
KKN1 131505Z 21014KT 32/17 A2993 RMK A01 T03220171  RH  043%=      5-min Rain = 0
KKN1 131510Z 21014KT 33/17 A2993 RMK A01 T03330173  RH  041%=      5-min Rain = 0
KKN1 131515Z 22013KT 34/17 A2993 RMK A01 T03400174  RH  039%=      5-min Rain = 0
KKN1 131520Z 21014KT 34/17 A2993 RMK A01 T03430174  RH  039%=      5-min Rain = 0
KKN1 131525Z 22015KT 35/18 A2993 RMK A01 T03460175  RH  038%=      5-min Rain = 0
KKN1 131530Z 22013G18KT 35/18 A2993 RMK A01 T03500175  RH  037%=      5-min Rain = 0
KKN1 131535Z 22017KT 35/17 A2993 RMK A01 T03530174  RH  037%=      5-min Rain = 0
KKN1 131540Z 22015KT 35/17 A2993 RMK A01 T03510174  RH  037%=      5-min Rain = 0
KKN1 131545Z 22016KT 35/17 A2993 RMK A01 T03530174  RH  037%=      5-min Rain = 0
KKN1 131550Z 22015KT 36/18 A2993 RMK A01 T03570175  RH  036%=      5-min Rain = 0
KKN1 131555Z 22014G19KT 36/18 A2993 RMK A01 T03610175  RH  035%=      5-min Rain = 0
KKN1 131600Z 22015G20KT 36/17 A2994 RMK A01 T03590173  RH  035%=      5-min Rain = 0
KKN1 131605Z 22016KT 36/17 A2994 RMK A01 T03620172  RH  034%=      5-min Rain = 0
KKN1 131610Z 21015G21KT 37/17 A2994 RMK A01 T03650171  RH  034%=      5-min Rain = 0
KKN1 131615Z 22013KT 37/17 A2994 RMK A01 T03650171  RH  033%=      5-min Rain = 0
KKN1 131620Z 22015KT 37/17 A2993 RMK A01 T03680172  RH  033%=      5-min Rain = 0
KKN1 131625Z 21014KT 37/17 A2994 RMK A01 T03700173  RH  033%=      5-min Rain = 0
KKN1 131630Z 20014KT 38/17 A2994 RMK A01 T03750173  RH  032%=      5-min Rain = 0
KKN1 131635Z 20013KT 37/17 A2994 RMK A01 T03740170  RH  032%=      5-min Rain = 0
KKN1 131640Z 20013G18KT 37/17 A2993 RMK A01 T03720172  RH  032%=      5-min Rain = 0
KKN1 131645Z 21013G18KT 37/17 A2993 RMK A01 T03730173  RH  033%=      5-min Rain = 0
KKN1 131650Z 20013G18KT 38/17 A2993 RMK A01 T03760171  RH  032%=      5-min Rain = 0
KKN1 131655Z 21012G17KT 38/17 A2993 RMK A01 T03780171  RH  031%=      5-min Rain = 0
KKN1 131700Z 20013G18KT 38/17 A2993 RMK A01 T03800168  RH  030%=      5-min Rain = 0
KKN1 131705Z 20014KT 38/16 A2993 RMK A01 T03810163  RH  029%=      5-min Rain = 0
KKN1 131710Z 21014G19KT 38/16 A2993 RMK A01 T03830159  RH  028%=      5-min Rain = 0
KKN1 131715Z 21015G20KT 38/16 A2993 RMK A01 T03820156  RH  028%=      5-min Rain = 0
KKN1 131720Z 21013G19KT 38/16 A2993 RMK A01 T03840158  RH  028%=      5-min Rain = 0
KKN1 131725Z 22013G21KT 39/15 A2993 RMK A01 T03890153  RH  026%=      5-min Rain = 0
KKN1 131730Z 21015G22KT 39/15 A2993 RMK A01 T03920152  RH  026%=      5-min Rain = 0
KKN1 131735Z 21015KT 39/15 A2992 RMK A01 T03920151  RH  025%=      5-min Rain = 0
KKN1 131740Z 22015G22KT 39/15 A2992 RMK A01 T03930148  RH  025%=      5-min Rain = 0
KKN1 131745Z 21014KT 40/15 A2992 RMK A01 T03950149  RH  025%=      5-min Rain = 0
KKN1 131750Z 19014KT 40/15 A2991 RMK A01 T03970147  RH  024%=      5-min Rain = 0
KKN1 131755Z 20016G23KT 40/15 A2991 RMK A01 T03970148  RH  024%=      5-min Rain = 0
KKN1 131800Z 19016G21KT 40/15 A2991 RMK A01 T03990145  RH  024%=      5-min Rain = 0
KKN1 131805Z 20015KT 40/15 A2991 RMK A01 T03990148  RH  024%=      5-min Rain = 0
KKN1 131810Z 19017G23KT 40/15 A2991 RMK A01 T03990149  RH  024%=      5-min Rain = 0
KKN1 131815Z 21015G20KT 40/15 A299 RMK A01 T04020146  RH  023%=      5-min Rain = 0
KKN1 131820Z 20014KT 40/15 A299 RMK A01 T04000147  RH  024%=      5-min Rain = 0
KKN1 131825Z 18015G21KT 41/15 A299 RMK A01 T04050147  RH  023%=      5-min Rain = 0
KKN1 131830Z 20016G21KT 40/15 A299 RMK A01 T04040146  RH  023%=      5-min Rain = 0
KKN1 131835Z 20015KT 40/15 A2989 RMK A01 T04000150  RH  024%=      5-min Rain = 0
KKN1 131840Z 19015G21KT 41/14 A2989 RMK A01 T04060144  RH  023%=      5-min Rain = 0
KKN1 131845Z 18016KT 41/14 A2989 RMK A01 T04080141  RH  022%=      5-min Rain = 0
KKN1 131850Z 18015G21KT 41/15 A2988 RMK A01 T04100146  RH  022%=      5-min Rain = 0
KKN1 131855Z 19015KT 41/14 A2988 RMK A01 T04140142  RH  021%=      5-min Rain = 0
KKN1 131900Z 18013G29KT 41/15 A2988 RMK A01 T04110145  RH  022%=      5-min Rain = 0
KKN1 131905Z 20014G19KT 42/14 A2988 RMK A01 T04160143  RH  021%=      5-min Rain = 0
KKN1 131910Z 18014G19KT 42/14 A2987 RMK A01 T04170142  RH  021%=      5-min Rain = 0
KKN1 131915Z 18016G23KT 41/15 A2987 RMK A01 T04120145  RH  022%=      5-min Rain = 0
KKN1 131920Z 18016G24KT 41/14 A2987 RMK A01 T04140142  RH  021%=      5-min Rain = 0
KKN1 131925Z 20014G20KT 41/14 A2986 RMK A01 T04130141  RH  021%=      5-min Rain = 0
KKN1 131930Z 19015KT 42/13 A2986 RMK A01 T04200131  RH  019%=      5-min Rain = 0
KKN1 131935Z 19016KT 42/14 A2986 RMK A01 T04190137  RH  020%=      5-min Rain = 0
KKN1 131940Z 19016G22KT 42/13 A2986 RMK A01 T04190132  RH  019%=      5-min Rain = 0
KKN1 131945Z 19014G20KT 42/13 A2986 RMK A01 T04190133  RH  020%=      5-min Rain = 0
KKN1 131950Z 19014G24KT 42/13 A2985 RMK A01 T04190131  RH  019%=      5-min Rain = 0
KKN1 131955Z 19017G23KT 43/12 A2985 RMK A01 T04250120  RH  017%=      5-min Rain = 0
KKN1 132000Z 19014G19KT 42/13 A2985 RMK A01 T04220131  RH  019%=      5-min Rain = 0
KKN1 132005Z 19016G21KT 42/13 A2985 RMK A01 T04240131  RH  019%=      5-min Rain = 0
KKN1 132010Z 18017G24KT 43/13 A2985 RMK A01 T04270126  RH  018%=      5-min Rain = 0
KKN1 132015Z 18016G21KT 42/12 A2985 RMK A01 T04230120  RH  017%=      5-min Rain = 0
KKN1 132020Z 18017G22KT 43/13 A2984 RMK A01 T04250127  RH  018%=      5-min Rain = 0
KKN1 132025Z 18015G21KT 42/13 A2984 RMK A01 T04230133  RH  019%=      5-min Rain = 0
KKN1 132030Z 18018G26KT 43/14 A2984 RMK A01 T04250135  RH  019%=      5-min Rain = 0
KKN1 132035Z 17017KT 42/13 A2983 RMK A01 T04220133  RH  019%=      5-min Rain = 0
KKN1 132040Z 17018G23KT 43/14 A2983 RMK A01 T04270136  RH  019%=      5-min Rain = 0
KKN1 132045Z 18015G21KT 43/14 A2983 RMK A01 T04260135  RH  019%=      5-min Rain = 0
KKN1 132050Z 18017G25KT 43/13 A2983 RMK A01 T04260131  RH  018%=      5-min Rain = 0
KKN1 132055Z 17020G25KT 42/13 A2982 RMK A01 T04240132  RH  019%=      5-min Rain = 0
KKN1 132100Z 17019KT 43/13 A2982 RMK A01 T04250133  RH  019%=      5-min Rain = 0
KKN1 132105Z 18017G24KT 43/13 A2982 RMK A01 T04250132  RH  019%=      5-min Rain = 0
KKN1 132110Z 17018G25KT 43/13 A2982 RMK A01 T04270127  RH  018%=      5-min Rain = 0
KKN1 132115Z 19016G23KT 43/13 A2982 RMK A01 T04290131  RH  018%=      5-min Rain = 0
KKN1 132120Z 19018G23KT 43/14 A2982 RMK A01 T04280136  RH  019%=      5-min Rain = 0
KKN1 132125Z 19015G23KT 42/13 A2981 RMK A01 T04240133  RH  019%=      5-min Rain = 0
KKN1 132130Z 17017G29KT 43/14 A2981 RMK A01 T04280140  RH  019%=      5-min Rain = 0
KKN1 132135Z 18016G22KT 43/13 A2981 RMK A01 T04280132  RH  019%=      5-min Rain = 0
KKN1 132140Z 18016KT 43/14 A2981 RMK A01 T04260141  RH  020%=      5-min Rain = 0
KKN1 132145Z 18014G20KT 42/14 A2981 RMK A01 T04220142  RH  020%=      5-min Rain = 0
KKN1 132150Z 20018G26KT 43/14 A2981 RMK A01 T04250140  RH  020%=      5-min Rain = 0
KKN1 132155Z 17017G26KT 43/14 A2981 RMK A01 T04260138  RH  019%=      5-min Rain = 0
KKN1 132200Z 18016G22KT 43/14 A2981 RMK A01 T04250139  RH  020%=      5-min Rain = 0
KKN1 132205Z 16017G22KT 42/14 A2981 RMK A01 T04230139  RH  020%=      5-min Rain = 0
KKN1 132210Z 18016G25KT 43/14 A2981 RMK A01 T04270141  RH  020%=      5-min Rain = 0
KKN1 132215Z 17017G23KT 42/14 A2981 RMK A01 T04240138  RH  020%=      5-min Rain = 0
KKN1 132220Z 17017G23KT 43/14 A298 RMK A01 T04250138  RH  020%=      5-min Rain = 0
KKN1 132225Z 18017KT 43/14 A298 RMK A01 T04270138  RH  019%=      5-min Rain = 0
KKN1 132230Z 18016G21KT 43/13 A298 RMK A01 T04250134  RH  019%=      5-min Rain = 0
KKN1 132235Z 17017G22KT 42/13 A298 RMK A01 T04240130  RH  019%=      5-min Rain = 0
KKN1 132240Z 17017G22KT 43/13 A298 RMK A01 T04250129  RH  018%=      5-min Rain = 0
KKN1 132245Z 18017G23KT 43/13 A298 RMK A01 T04250127  RH  018%=      5-min Rain = 0
KKN1 132250Z 18015G22KT 43/13 A298 RMK A01 T04260129  RH  018%=      5-min Rain = 0
KKN1 132255Z 19014G21KT 43/13 A298 RMK A01 T04270132  RH  018%=      5-min Rain = 0
KKN1 132300Z 19016G21KT 43/13 A298 RMK A01 T04250133  RH  019%=      5-min Rain = 0
KKN1 132305Z 18016G21KT 43/13 A298 RMK A01 T04270132  RH  019%=      5-min Rain = 0
KKN1 132310Z 18015G20KT 43/14 A298 RMK A01 T04250135  RH  019%=      5-min Rain = 0
KKN1 132315Z 19015G21KT 42/13 A298 RMK A01 T04230130  RH  019%=      5-min Rain = 0
KKN1 132320Z 18015KT 42/13 A298 RMK A01 T04230130  RH  019%=      5-min Rain = 0
KKN1 132325Z 17015KT 42/13 A298 RMK A01 T04240134  RH  019%=      5-min Rain = 0
KKN1 132330Z 18014KT 42/13 A298 RMK A01 T04240131  RH  019%=      5-min Rain = 0
KKN1 132335Z 18013KT 42/14 A2979 RMK A01 T04240137  RH  019%=      5-min Rain = 0
KKN1 132340Z 17016G21KT 42/13 A2979 RMK A01 T04210134  RH  019%=      5-min Rain = 0
KKN1 132345Z 17016KT 42/13 A2979 RMK A01 T04190132  RH  019%=      5-min Rain = 0
KKN1 132350Z 17015G20KT 42/13 A2979 RMK A01 T04200132  RH  019%=      5-min Rain = 0
KKN1 132355Z 18016KT 42/13 A2979 RMK A01 T04180132  RH  019%=      5-min Rain = 0
KKN1 140000Z 17015KT 42/13 A2979 RMK A01 T04170129  RH  019%=      5-min Rain = 0
KKN1 140005Z 17017G22KT 41/13 A2979 RMK A01 T04140126  RH  019%=      5-min Rain = 0
KKN1 140010Z 18016G21KT 42/13 A2979 RMK A01 T04150127  RH  019%=      5-min Rain = 0
KKN1 140015Z 17015KT 41/13 A2979 RMK A01 T04130127  RH  019%=      5-min Rain = 0
KKN1 140020Z 17016G21KT 41/13 A2979 RMK A01 T04120127  RH  019%=      5-min Rain = 0
KKN1 140025Z 17015KT 41/13 A2979 RMK A01 T04110127  RH  019%=      5-min Rain = 0
KKN1 140030Z 17014G20KT 41/13 A2979 RMK A01 T04100128  RH  020%=      5-min Rain = 0
KKN1 140035Z 18014KT 41/13 A2979 RMK A01 T04070128  RH  020%=      5-min Rain = 0
KKN1 140040Z 18013KT 41/13 A2979 RMK A01 T04050128  RH  020%=      5-min Rain = 0
KKN1 140045Z 17014KT 40/13 A2979 RMK A01 T04030125  RH  020%=      5-min Rain = 0
KKN1 140050Z 17015KT 40/13 A2979 RMK A01 T04010125  RH  020%=      5-min Rain = 0
KKN1 140055Z 18013KT 40/13 A2979 RMK A01 T03990125  RH  021%=      5-min Rain = 0
KKN1 140100Z 17012KT 40/13 A298 RMK A01 T03960126  RH  021%=      5-min Rain = 0
KKN1 140105Z 17012KT 39/13 A298 RMK A01 T03930126  RH  021%=      5-min Rain = 0
KKN1 140110Z 17011KT 39/13 A298 RMK A01 T03890126  RH  022%=      5-min Rain = 0
KKN1 140115Z 17011KT 39/13 A298 RMK A01 T03860126  RH  022%=      5-min Rain = 0
KKN1 140120Z 17012KT 38/12 A298 RMK A01 T03830124  RH  022%=      5-min Rain = 0
KKN1 140125Z 17012KT 38/12 A298 RMK A01 T03820123  RH  022%=      5-min Rain = 0
KKN1 140130Z 17011KT 38/12 A298 RMK A01 T03770123  RH  023%=      5-min Rain = 0
KKN1 140135Z 17011KT 37/12 A298 RMK A01 T03740123  RH  023%=      5-min Rain = 0
KKN1 140140Z 17011KT 37/12 A298 RMK A01 T03700122  RH  023%=      5-min Rain = 0
KKN1 140145Z 17012KT 37/12 A298 RMK A01 T03690121  RH  024%=      5-min Rain = 0
KKN1 140150Z 17011KT 37/12 A298 RMK A01 T03680121  RH  024%=      5-min Rain = 0
KKN1 140155Z 17011KT 36/12 A298 RMK A01 T03640121  RH  024%=      5-min Rain = 0
KKN1 140200Z 17011KT 36/12 A298 RMK A01 T03630120  RH  024%=      5-min Rain = 0
KKN1 140205Z 17011KT 36/12 A298 RMK A01 T03610121  RH  024%=      5-min Rain = 0
KKN1 140210Z 17010KT 36/12 A298 RMK A01 T03580121  RH  025%=      5-min Rain = 0
KKN1 140215Z 17010KT 36/12 A298 RMK A01 T03560121  RH  025%=      5-min Rain = 0
KKN1 140220Z 17010KT 36/12 A298 RMK A01 T03550122  RH  025%=      5-min Rain = 0
KKN1 140225Z 17010KT 35/12 A2981 RMK A01 T03530122  RH  026%=      5-min Rain = 0
KKN1 140230Z 17010KT 35/12 A2981 RMK A01 T03510122  RH  026%=      5-min Rain = 0
KKN1 140235Z 17010KT 35/12 A2981 RMK A01 T03500123  RH  026%=      5-min Rain = 0
KKN1 140240Z 17011KT 35/12 A2981 RMK A01 T03510124  RH  026%=      5-min Rain = 0
KKN1 140245Z 17010KT 35/12 A2981 RMK A01 T03500124  RH  027%=      5-min Rain = 0
KKN1 140250Z 17011KT 35/13 A2981 RMK A01 T03490125  RH  027%=      5-min Rain = 0
KKN1 140255Z 17011KT 35/13 A2981 RMK A01 T03480126  RH  027%=      5-min Rain = 0
KKN1 140300Z 17010KT 35/13 A2982 RMK A01 T03470126  RH  027%=      5-min Rain = 0
KKN1 140305Z 17010KT 35/13 A2982 RMK A01 T03450127  RH  028%=      5-min Rain = 0
KKN1 140310Z 17010KT 34/13 A2982 RMK A01 T03440128  RH  028%=      5-min Rain = 0
KKN1 140315Z 17010KT 34/13 A2982 RMK A01 T03420128  RH  029%=      5-min Rain = 0
KKN1 140320Z 17010KT 34/13 A2982 RMK A01 T03400129  RH  029%=      5-min Rain = 0
KKN1 140325Z 17010KT 34/13 A2982 RMK A01 T03390129  RH  029%=      5-min Rain = 0
KKN1 140330Z 17010KT 34/13 A2982 RMK A01 T03370129  RH  030%=      5-min Rain = 0
KKN1 140335Z 17010KT 34/13 A2982 RMK A01 T03350130  RH  030%=      5-min Rain = 0
KKN1 140340Z 17009KT 33/13 A2982 RMK A01 T03340130  RH  030%=      5-min Rain = 0
KKN1 140345Z 17009KT 33/13 A2982 RMK A01 T03320131  RH  031%=      5-min Rain = 0
KKN1 140350Z 17009KT 33/13 A2982 RMK A01 T03300131  RH  031%=      5-min Rain = 0
KKN1 140355Z 17009KT 33/13 A2983 RMK A01 T03280131  RH  031%=      5-min Rain = 0
KKN1 140400Z 17010KT 33/13 A2983 RMK A01 T03270131  RH  032%=      5-min Rain = 0
KKN1 140405Z 17009KT 33/13 A2983 RMK A01 T03250131  RH  032%=      5-min Rain = 0
KKN1 140410Z 17010KT 33/13 A2983 RMK A01 T03250130  RH  032%=      5-min Rain = 0
KKN1 140415Z 17010KT 32/13 A2983 RMK A01 T03240130  RH  032%=      5-min Rain = 0
KKN1 140420Z 17010KT 32/13 A2983 RMK A01 T03220131  RH  032%=      5-min Rain = 0
KKN1 140425Z 17010KT 32/13 A2983 RMK A01 T03200130  RH  033%=      5-min Rain = 0
KKN1 140430Z 17010KT 32/13 A2983 RMK A01 T03180130  RH  033%=      5-min Rain = 0
KKN1 140435Z 17009KT 32/13 A2983 RMK A01 T03160130  RH  033%=      5-min Rain = 0
KKN1 140440Z 17009KT 31/13 A2983 RMK A01 T03140130  RH  034%=      5-min Rain = 0
KKN1 140445Z 17009KT 31/13 A2983 RMK A01 T03120130  RH  034%=      5-min Rain = 0
KKN1 140450Z 17009KT 31/13 A2983 RMK A01 T03110130  RH  034%=      5-min Rain = 0
KKN1 140455Z 17009KT 31/13 A2983 RMK A01 T03100130  RH  035%=      5-min Rain = 0

Page generated in 0.0156 seconds.